Time;durP1;ratioP1;P1;durP2;ratioP2;P2;SDS_P1;SDS_P2;PMS_P1;PMS_P2;Temp;Humidity;BMP_temperature;BMP_pressure;BME280_temperature;BME280_humidity;BME280_pressure;Samples;Min_cycle;Max_cycle;Signal;HPM_P1;HPM_P2
2021/04/08 00:00:22;;;;;;;20.08;9.60;;;;;;;2.19;62.93;99466.16;3563990;40;20049;-71
2021/04/08 00:02:49;;;;;;;17.33;9.35;;;;;;;2.20;62.83;99463.53;3565420;40;20120;-71
2021/04/08 00:05:16;;;;;;;18.40;9.27;;;;;;;2.26;62.60;99463.44;3564852;40;20154;-71
2021/04/08 00:07:42;;;;;;;17.80;9.85;;;;;;;2.30;62.33;99464.25;3564890;40;20048;-72
2021/04/08 00:10:10;;;;;;;18.80;9.13;;;;;;;2.36;62.41;99464.16;3566081;40;20050;-71
2021/04/08 00:12:37;;;;;;;17.10;8.13;;;;;;;2.40;62.03;99460.63;3566120;40;20053;-70
2021/04/08 00:15:06;;;;;;;16.50;8.77;;;;;;;2.36;61.94;99459.81;3567444;40;20211;-71
2021/04/08 00:17:34;;;;;;;17.92;9.93;;;;;;;2.42;61.95;99457.13;3565523;40;20414;-71
2021/04/08 00:20:00;;;;;;;18.83;8.95;;;;;;;2.57;61.68;99452.56;3563677;40;20074;-70
2021/04/08 00:22:27;;;;;;;15.85;8.27;;;;;;;2.74;61.45;99448.78;3566251;40;20282;-72
2021/04/08 00:24:53;;;;;;;15.13;8.95;;;;;;;2.87;61.07;99451.94;3567172;40;20413;-70
2021/04/08 00:27:19;;;;;;;15.68;8.70;;;;;;;2.98;60.88;99452.59;3566416;40;20338;-70
2021/04/08 00:29:56;;;;;;;19.63;9.40;;;;;;;3.07;60.84;99454.13;3566896;40;20053;-71
2021/04/08 00:32:23;;;;;;;15.27;8.50;;;;;;;3.05;60.84;99451.59;3568088;40;20127;-71
2021/04/08 00:34:50;;;;;;;18.00;8.60;;;;;;;3.12;60.64;99452.31;3565244;40;20045;-70
2021/04/08 00:37:16;;;;;;;18.10;8.80;;;;;;;3.18;60.70;99459.97;3567507;40;20077;-70
2021/04/08 00:39:45;;;;;;;16.70;8.43;;;;;;;3.17;60.85;99458.25;3567211;40;20041;-70
2021/04/08 00:42:11;;;;;;;15.38;7.82;;;;;;;3.19;60.58;99453.91;3566082;40;20065;-71
2021/04/08 00:44:38;;;;;;;13.32;7.90;;;;;;;3.23;60.42;99454.69;3565997;40;20038;-71
2021/04/08 00:47:04;;;;;;;16.48;8.15;;;;;;;3.24;60.44;99446.03;3566954;40;20044;-70
2021/04/08 00:49:31;;;;;;;17.70;8.43;;;;;;;3.27;60.67;99448.53;3566531;40;20053;-71
2021/04/08 00:51:57;;;;;;;15.60;8.65;;;;;;;3.32;60.42;99444.97;3567107;40;20073;-70
2021/04/08 00:54:24;;;;;;;19.63;8.95;;;;;;;3.41;60.38;99450.84;3565791;40;20353;-70
2021/04/08 00:56:50;;;;;;;19.92;9.65;;;;;;;3.47;60.19;99453.28;3567503;40;20091;-70
2021/04/08 00:59:17;;;;;;;18.88;9.43;;;;;;;3.49;60.26;99459.28;3567501;40;20070;-70
2021/04/08 01:01:44;;;;;;;22.23;10.43;;;;;;;3.53;59.90;99466.09;3566641;40;20400;-70
2021/04/08 01:04:11;;;;;;;17.55;9.38;;;;;;;3.54;59.88;99472.97;3562799;40;20045;-70
2021/04/08 01:06:39;;;;;;;20.17;10.15;;;;;;;3.54;59.82;99472.97;3564245;40;20060;-70
2021/04/08 01:09:06;;;;;;;19.52;9.63;;;;;;;3.53;59.76;99472.13;3566635;40;20049;-70
2021/04/08 01:11:32;;;;;;;14.77;8.85;;;;;;;3.59;59.62;99481.53;3565680;40;20037;-70
2021/04/08 01:13:59;;;;;;;19.33;9.18;;;;;;;3.64;59.53;99479.69;3565575;40;20052;-70
2021/04/08 01:16:35;;;;;;;18.08;9.52;;;;;;;3.69;59.06;99480.44;3565420;40;20148;-70
2021/04/08 01:19:16;;;;;;;21.08;10.38;;;;;;;3.77;59.18;99482.88;3564253;40;20043;-71
2021/04/08 01:21:49;;;;;;;18.75;10.63;;;;;;;3.78;58.99;99490.59;3565418;40;20048;-70
2021/04/08 01:24:36;;;;;;;20.80;10.32;;;;;;;3.78;59.05;99487.16;3565500;40;20111;-71
2021/04/08 01:27:34;;;;;;;22.90;10.32;;;;;;;3.81;58.96;99480.16;3566582;40;20294;-71
2021/04/08 01:30:17;;;;;;;22.63;10.93;;;;;;;3.82;58.73;99475.81;3567065;40;20033;-71
2021/04/08 01:32:51;;;;;;;20.42;10.40;;;;;;;3.80;58.92;99483.66;3565715;40;20037;-70
2021/04/08 01:35:26;;;;;;;23.27;11.02;;;;;;;3.77;58.97;99481.13;3567426;40;20037;-70
2021/04/08 01:38:01;;;;;;;22.70;11.07;;;;;;;3.71;59.01;99477.81;3565956;40;20074;-71
2021/04/08 01:40:28;;;;;;;21.17;11.60;;;;;;;3.67;59.07;99487.38;3565052;40;20029;-70
2021/04/08 01:42:56;;;;;;;23.02;10.52;;;;;;;3.64;59.08;99485.72;3566946;40;20053;-70
2021/04/08 01:45:23;;;;;;;24.00;11.07;;;;;;;3.63;58.96;99480.56;3565632;40;20030;-71
2021/04/08 01:47:53;;;;;;;24.20;12.43;;;;;;;3.64;58.90;99477.94;3566157;40;20049;-71
2021/04/08 01:50:20;;;;;;;23.65;10.68;;;;;;;3.68;58.81;99483.91;3566353;40;20125;-71
2021/04/08 01:52:49;;;;;;;26.75;10.98;;;;;;;3.68;58.54;99468.34;3565098;40;20085;-70
2021/04/08 01:55:29;;;;;;;24.83;12.27;;;;;;;3.73;58.49;99473.44;3565552;40;20405;-71
2021/04/08 01:57:56;;;;;;;23.85;10.45;;;;;;;3.74;58.55;99478.56;3566627;40;20045;-70
2021/04/08 02:00:24;;;;;;;21.02;10.88;;;;;;;3.73;58.41;99481.22;3567291;40;20078;-70
2021/04/08 02:02:54;;;;;;;15.52;8.98;;;;;;;3.75;58.49;99480.31;3567087;40;20044;-70
2021/04/08 02:05:21;;;;;;;19.88;10.60;;;;;;;3.80;58.20;99475.88;3566314;40;20042;-70
2021/04/08 02:07:51;;;;;;;19.38;9.65;;;;;;;3.82;58.40;99481.00;3566006;40;20045;-71
2021/04/08 02:10:18;;;;;;;18.05;10.60;;;;;;;3.83;58.13;99475.78;3564443;40;20058;-71
2021/04/08 02:12:47;;;;;;;20.15;10.40;;;;;;;3.85;58.17;99478.34;3566041;40;20057;-70
2021/04/08 02:15:16;;;;;;;18.58;9.27;;;;;;;3.86;58.17;99472.28;3566170;40;20037;-70
2021/04/08 02:17:45;;;;;;;20.33;10.18;;;;;;;3.84;58.20;99467.13;3567921;40;20278;-70
2021/04/08 02:20:16;;;;;;;19.67;10.27;;;;;;;3.80;57.94;99465.50;3567513;40;20412;-71
2021/04/08 02:22:45;;;;;;;22.65;10.38;;;;;;;3.81;58.47;99479.31;3569764;40;20049;-72
2021/04/08 02:25:13;;;;;;;21.35;9.73;;;;;;;3.79;58.17;99476.75;3568364;40;20073;-71
2021/04/08 02:27:41;;;;;;;17.30;8.90;;;;;;;3.80;58.07;99477.59;3566749;40;20037;-70
2021/04/08 02:30:11;;;;;;;16.50;9.10;;;;;;;3.81;58.16;99476.72;3568379;40;20037;-71
2021/04/08 02:32:40;;;;;;;17.02;8.93;;;;;;;3.83;58.15;99470.59;3569453;40;20301;-71
2021/04/08 02:35:09;;;;;;;17.88;9.50;;;;;;;3.84;57.95;99476.63;3569146;40;20340;-70
2021/04/08 02:37:37;;;;;;;14.68;9.38;;;;;;;3.86;57.98;99474.84;3568272;40;20096;-71
2021/04/08 02:40:05;;;;;;;16.52;8.57;;;;;;;3.82;57.87;99487.06;3567730;40;20049;-71
2021/04/08 02:42:32;;;;;;;18.80;9.88;;;;;;;3.79;57.98;99487.13;3568353;40;20076;-70
2021/04/08 02:44:58;;;;;;;21.05;9.75;;;;;;;3.84;58.08;99490.47;3568137;40;20140;-73
2021/04/08 02:47:25;;;;;;;21.48;10.55;;;;;;;3.92;57.77;99488.53;3568194;40;20390;-72
2021/04/08 02:49:51;;;;;;;14.75;9.05;;;;;;;3.95;57.56;99493.63;3567417;40;20061;-70
2021/04/08 02:52:20;;;;;;;13.73;8.57;;;;;;;3.95;57.68;99488.44;3569412;40;20081;-71
2021/04/08 02:54:50;;;;;;;18.88;9.82;;;;;;;4.00;57.52;99495.28;3565989;40;20038;-71
2021/04/08 02:57:22;;;;;;;16.58;8.80;;;;;;;4.02;57.36;99503.88;3565766;40;20050;-73
2021/04/08 02:59:53;;;;;;;16.15;9.13;;;;;;;3.97;57.64;99491.88;3568434;40;20077;-71
2021/04/08 03:02:22;;;;;;;16.87;8.90;;;;;;;4.03;57.50;99506.44;3559524;40;20081;-72
2021/04/08 03:04:50;;;;;;;16.23;7.95;;;;;;;4.06;57.26;99502.91;3568549;40;20380;-72
2021/04/08 03:07:21;;;;;;;30.35;8.30;;;;;;;4.01;57.27;99497.00;3567324;40;20077;-71
2021/04/08 03:09:50;;;;;;;16.17;8.75;;;;;;;4.03;57.39;99500.41;3568534;40;20036;-74
2021/04/08 03:12:20;;;;;;;16.73;9.15;;;;;;;4.01;57.36;99497.84;3569167;40;20231;-71
2021/04/08 03:14:50;;;;;;;17.80;8.90;;;;;;;4.06;57.29;99496.00;3565136;40;20047;-71
2021/04/08 03:17:19;;;;;;;16.55;8.95;;;;;;;4.02;57.60;99489.19;3567799;40;20312;-72
2021/04/08 03:19:48;;;;;;;17.05;9.20;;;;;;;3.96;57.45;99490.19;3568404;40;20044;-70
2021/04/08 03:22:16;;;;;;;15.52;8.40;;;;;;;3.93;57.52;99490.22;3567452;40;20323;-72
2021/04/08 03:24:44;;;;;;;14.13;8.77;;;;;;;3.91;57.44;99497.19;3566354;40;20429;-73
2021/04/08 03:27:12;;;;;;;14.45;8.07;;;;;;;3.89;57.73;99503.31;3568179;40;20067;-72
2021/04/08 03:29:41;;;;;;;14.50;9.00;;;;;;;3.93;57.52;99498.00;3568401;40;20037;-72
2021/04/08 03:32:09;;;;;;;18.42;9.85;;;;;;;4.01;57.43;99502.19;3567490;40;20053;-71
2021/04/08 03:34:37;;;;;;;18.25;9.38;;;;;;;4.08;57.21;99494.22;3568433;40;20335;-73
2021/04/08 03:37:05;;;;;;;18.27;9.70;;;;;;;4.15;57.23;99500.09;3569098;40;20399;-72
2021/04/08 03:39:32;;;;;;;15.45;8.95;;;;;;;4.18;57.04;99505.22;3567982;40;20065;-72
2021/04/08 03:41:59;;;;;;;16.23;8.45;;;;;;;4.17;57.22;99504.38;3560381;40;20034;-72
2021/04/08 03:44:29;;;;;;;14.10;8.20;;;;;;;4.20;57.15;99513.81;3560215;40;20029;-73
2021/04/08 03:46:59;;;;;;;15.40;8.55;;;;;;;4.23;57.03;99509.41;3567045;40;20044;-71
2021/04/08 03:49:33;;;;;;;15.85;8.07;;;;;;;4.25;57.08;99517.16;3567203;40;20045;-74
2021/04/08 03:52:02;;;;;;;18.17;8.95;;;;;;;4.27;57.12;99515.38;3566964;40;20042;-77
2021/04/08 03:54:30;;;;;;;17.85;9.95;;;;;;;4.26;57.14;99519.72;3566276;40;20038;-77
2021/04/08 03:56:58;;;;;;;17.95;9.15;;;;;;;4.18;57.33;99525.97;3568668;40;20049;-79
2021/04/08 03:59:26;;;;;;;17.83;9.43;;;;;;;4.02;58.00;99519.44;3568872;40;20376;-77
2021/04/08 04:01:54;;;;;;;18.92;9.73;;;;;;;3.83;58.69;99525.06;3566874;40;20044;-77
2021/04/08 04:04:21;;;;;;;16.13;9.32;;;;;;;3.74;59.52;99520.06;3568525;40;20070;-78
2021/04/08 04:06:51;;;;;;;20.38;11.00;;;;;;;3.67;59.68;99523.69;3567895;40;20037;-77
2021/04/08 04:09:18;;;;;;;20.67;11.18;;;;;;;3.58;59.94;99522.16;3567074;40;20065;-79
2021/04/08 04:11:46;;;;;;;20.15;10.27;;;;;;;3.56;60.30;99520.47;3568821;40;20070;-77
2021/04/08 04:14:16;;;;;;;20.25;10.27;;;;;;;3.57;60.73;99527.38;3569319;40;20033;-77
2021/04/08 04:16:44;;;;;;;19.25;10.35;;;;;;;3.63;60.62;99532.41;3568765;40;20049;-76
2021/04/08 04:19:11;;;;;;;20.45;11.25;;;;;;;3.67;60.62;99526.28;3568951;40;20037;-77
2021/04/08 04:21:37;;;;;;;19.27;10.23;;;;;;;3.68;60.81;99530.56;3568488;40;20077;-77
2021/04/08 04:24:04;;;;;;;19.08;11.15;;;;;;;3.68;60.84;99534.00;3563633;40;20045;-77
2021/04/08 04:26:30;;;;;;;21.20;11.77;;;;;;;3.74;60.66;99534.75;3565614;40;20073;-77
2021/04/08 04:28:57;;;;;;;17.52;11.07;;;;;;;3.75;60.94;99541.66;3563825;40;20049;-76
2021/04/08 04:31:23;;;;;;;19.92;10.85;;;;;;;3.75;60.94;99536.47;3565271;40;20046;-77
2021/04/08 04:33:50;;;;;;;21.17;12.05;;;;;;;3.72;61.13;99532.19;3565283;40;20043;-76
2021/04/08 04:36:17;;;;;;;19.10;10.93;;;;;;;3.78;61.20;99537.28;3566758;40;20033;-77
2021/04/08 04:38:43;;;;;;;18.77;12.18;;;;;;;3.80;61.23;99540.69;3564516;40;20061;-77
2021/04/08 04:41:10;;;;;;;19.77;12.95;;;;;;;3.83;61.33;99540.59;3568104;40;20066;-77
2021/04/08 04:43:36;;;;;;;25.80;14.35;;;;;;;3.88;61.44;99540.50;3564731;40;20045;-76
2021/04/08 04:46:03;;;;;;;26.38;14.05;;;;;;;3.93;61.44;99536.06;3566755;40;20479;-77
2021/04/08 04:48:30;;;;;;;23.38;13.07;;;;;;;3.96;61.65;99542.06;3567962;40;20037;-77
2021/04/08 04:50:58;;;;;;;27.17;14.70;;;;;;;4.07;61.44;99544.38;3566097;40;20066;-79
2021/04/08 04:53:24;;;;;;;25.35;13.20;;;;;;;4.18;61.40;99541.56;3565503;40;20057;-78
2021/04/08 04:55:51;;;;;;;20.50;11.88;;;;;;;4.27;61.15;99541.31;3566876;40;20048;-76
2021/04/08 04:58:17;;;;;;;24.48;13.90;;;;;;;4.27;61.30;99541.31;3567729;40;20077;-77
2021/04/08 05:00:43;;;;;;;26.70;14.40;;;;;;;4.28;61.00;99548.22;3566679;40;20046;-77
2021/04/08 05:03:10;;;;;;;24.63;13.95;;;;;;;4.29;61.29;99547.31;3566520;40;20122;-78
2021/04/08 05:05:37;;;;;;;19.17;12.73;;;;;;;4.32;61.19;99548.97;3564721;40;20075;-78
2021/04/08 05:08:04;;;;;;;25.30;13.10;;;;;;;4.36;61.30;99553.22;3566925;40;20038;-78
2021/04/08 05:10:31;;;;;;;23.40;13.20;;;;;;;4.37;61.48;99552.31;3566707;40;20045;-79
2021/04/08 05:12:57;;;;;;;26.80;14.40;;;;;;;4.40;61.27;99560.91;3565134;40;20045;-78
2021/04/08 05:15:23;;;;;;;25.23;13.82;;;;;;;4.44;61.38;99561.69;3566049;40;20046;-77
2021/04/08 05:17:50;;;;;;;24.83;13.65;;;;;;;4.45;61.48;99556.44;3566509;40;20045;-78
2021/04/08 05:20:16;;;;;;;27.50;15.30;;;;;;;4.39;61.83;99563.53;3566627;40;20034;-78
2021/04/08 05:22:42;;;;;;;21.55;11.90;;;;;;;4.39;61.78;99569.59;3565948;40;20044;-78
2021/04/08 05:25:10;;;;;;;21.88;12.90;;;;;;;4.40;62.01;99580.81;3567258;40;20044;-78
2021/04/08 05:27:37;;;;;;;25.30;14.43;;;;;;;4.44;61.83;99585.88;3567900;40;20037;-78
2021/04/08 05:30:04;;;;;;;24.77;13.35;;;;;;;4.44;62.04;99585.88;3565671;40;20038;-78
2021/04/08 05:32:30;;;;;;;22.63;12.35;;;;;;;4.41;61.88;99588.56;3567010;40;20051;-79
2021/04/08 05:34:57;;;;;;;23.83;12.30;;;;;;;4.48;62.14;99584.91;3566494;40;20034;-78
2021/04/08 05:37:23;;;;;;;22.25;13.43;;;;;;;4.58;61.92;99591.59;3567083;40;20045;-77
2021/04/08 05:39:49;;;;;;;23.60;13.20;;;;;;;4.60;61.79;99601.94;3563702;40;20048;-78
2021/04/08 05:42:16;;;;;;;22.70;13.10;;;;;;;4.65;61.97;99597.50;3565778;40;20049;-79
2021/04/08 05:44:42;;;;;;;19.90;12.60;;;;;;;4.72;61.81;99600.78;3566561;40;20148;-79
2021/04/08 05:47:09;;;;;;;22.63;11.82;;;;;;;4.79;61.70;99600.59;3565277;40;20049;-78
2021/04/08 05:49:36;;;;;;;24.63;13.82;;;;;;;4.89;61.67;99609.00;3562504;40;20038;-78
2021/04/08 05:52:04;;;;;;;21.58;13.88;;;;;;;5.00;61.67;99609.59;3561255;40;20123;-79
2021/04/08 05:54:31;;;;;;;23.65;14.55;;;;;;;5.10;61.35;99615.41;3564782;40;20033;-79
2021/04/08 05:56:57;;;;;;;25.63;15.80;;;;;;;5.16;61.35;99618.66;3564400;40;20050;-79
2021/04/08 05:59:24;;;;;;;24.35;14.38;;;;;;;5.08;61.55;99623.22;3566103;40;20041;-79
2021/04/08 06:01:51;;;;;;;22.85;13.68;;;;;;;5.09;61.53;99630.13;3564914;40;20447;-79
2021/04/08 06:04:17;;;;;;;22.13;14.30;;;;;;;5.11;61.53;99622.28;3566187;40;20045;-78
2021/04/08 06:06:43;;;;;;;25.52;15.05;;;;;;;5.23;61.64;99626.31;3566959;40;20042;-79
2021/04/08 06:09:09;;;;;;;25.02;14.90;;;;;;;5.32;61.27;99639.06;3565154;40;20119;-78
2021/04/08 06:11:36;;;;;;;25.63;16.10;;;;;;;5.33;61.50;99638.16;3566926;40;20089;-78
2021/04/08 06:14:02;;;;;;;25.13;15.02;;;;;;;5.40;61.55;99637.09;3564662;40;20038;-78
2021/04/08 06:16:29;;;;;;;27.73;16.05;;;;;;;5.47;61.53;99641.25;3566798;40;20042;-78
2021/04/08 06:18:56;;;;;;;30.42;16.70;;;;;;;5.66;60.93;99641.59;3564480;40;20037;-79
2021/04/08 06:21:22;;;;;;;32.85;17.58;;;;;;;5.92;60.48;99643.50;3565589;40;20103;-79
2021/04/08 06:23:51;;;;;;;29.85;16.15;;;;;;;6.09;60.15;99646.47;3567793;40;20045;-79
2021/04/08 06:26:18;;;;;;;23.13;14.25;;;;;;;6.08;60.28;99655.16;3567529;40;20037;-79
2021/04/08 06:28:44;;;;;;;25.92;15.30;;;;;;;6.18;60.38;99656.56;3567503;40;20111;-78
2021/04/08 06:31:11;;;;;;;24.77;14.30;;;;;;;6.42;60.01;99653.22;3567241;40;20065;-79
2021/04/08 06:33:44;;;;;;;20.05;12.50;;;;;;;6.47;59.64;99653.13;3564437;40;20047;-78
2021/04/08 06:36:10;;;;;;;23.52;13.82;;;;;;;6.43;60.08;99660.13;3565974;40;20037;-79
2021/04/08 06:38:37;;;;;;;23.40;14.77;;;;;;;6.44;59.78;99658.38;3566625;40;20351;-77
2021/04/08 06:41:03;;;;;;;24.45;13.98;;;;;;;6.40;60.01;99668.03;3563874;40;20029;-79
2021/04/08 06:43:32;;;;;;;24.15;13.65;;;;;;;6.52;59.96;99679.00;3566934;40;20074;-78
2021/04/08 06:46:00;;;;;;;25.58;14.63;;;;;;;6.64;59.63;99668.19;3567993;40;20033;-79
2021/04/08 06:48:32;;;;;;;26.23;15.48;;;;;;;6.73;59.28;99679.19;3568426;40;20033;-78
2021/04/08 06:51:02;;;;;;;25.42;14.82;;;;;;;6.75;59.09;99681.72;3567327;40;20037;-78
2021/04/08 06:53:29;;;;;;;23.13;13.88;;;;;;;6.67;59.66;99678.53;3569013;40;20044;-77
2021/04/08 06:55:56;;;;;;;21.55;13.45;;;;;;;6.67;59.46;99683.75;3566549;40;20478;-77
2021/04/08 06:58:23;;;;;;;23.73;13.63;;;;;;;6.76;59.18;99688.66;3568211;40;20367;-78
2021/04/08 07:00:49;;;;;;;20.13;11.18;;;;;;;6.87;59.08;99694.38;3567191;40;20057;-79
2021/04/08 07:03:17;;;;;;;22.02;12.45;;;;;;;7.05;58.66;99695.50;3568504;40;20054;-78
2021/04/08 07:05:43;;;;;;;22.83;14.00;;;;;;;7.23;58.05;99699.28;3567358;40;20416;-78
2021/04/08 07:08:10;;;;;;;18.48;10.95;;;;;;;7.16;58.35;99692.56;3567410;40;20037;-78
2021/04/08 07:10:39;;;;;;;19.00;11.50;;;;;;;7.09;58.23;99701.50;3566766;40;20073;-78
2021/04/08 07:13:06;;;;;;;17.67;10.90;;;;;;;7.08;58.62;99711.09;3567398;40;20423;-77
2021/04/08 07:15:32;;;;;;;19.23;10.80;;;;;;;7.04;58.67;99718.13;3564428;40;20038;-77
2021/04/08 07:17:59;;;;;;;17.70;11.20;;;;;;;6.93;58.77;99711.56;3564596;40;20053;-77
2021/04/08 07:20:25;;;;;;;22.02;12.00;;;;;;;6.92;58.76;99721.13;3566903;40;20029;-77
2021/04/08 07:23:07;;;;;;;17.08;10.50;;;;;;;6.83;59.14;99721.41;3566611;40;20085;-78
2021/04/08 07:25:34;;;;;;;15.93;10.23;;;;;;;6.76;59.04;99721.66;3562780;40;20030;-77
2021/04/08 07:28:00;;;;;;;16.33;9.13;;;;;;;6.85;59.02;99734.38;3567474;40;20085;-77
2021/04/08 07:30:27;;;;;;;14.43;9.52;;;;;;;6.98;58.69;99731.34;3561587;40;20038;-78
2021/04/08 07:32:59;;;;;;;20.10;10.23;;;;;;;7.24;57.96;99734.88;3562767;40;20045;-78
2021/04/08 07:35:25;;;;;;;17.25;9.35;;;;;;;7.63;57.21;99750.94;3565292;40;20040;-77
2021/04/08 07:37:55;;;;;;;13.45;8.40;;;;;;;7.88;56.55;99743.97;3565686;40;20487;-77
2021/04/08 07:40:24;;;;;;;14.70;8.57;;;;;;;7.88;56.61;99763.97;3566272;40;20128;-77
2021/04/08 07:42:53;;;;;;;17.83;8.77;;;;;;;7.93;56.70;99765.53;3560961;40;20069;-77
2021/04/08 07:45:24;;;;;;;11.35;7.95;;;;;;;7.94;56.53;99766.41;3563942;40;20325;-76
2021/04/08 07:47:58;;;;;;;11.25;7.18;;;;;;;7.83;56.76;99771.13;3564392;40;20294;-77
2021/04/08 07:50:24;;;;;;;15.68;8.88;;;;;;;8.05;56.45;99774.69;3564430;40;20081;-78
2021/04/08 07:52:51;;;;;;;11.93;8.43;;;;;;;8.24;55.78;99778.34;3563728;40;20034;-78
2021/04/08 07:55:19;;;;;;;15.30;9.55;;;;;;;8.46;55.38;99782.81;3564121;40;20049;-77
2021/04/08 07:58:00;;;;;;;13.20;6.90;;;;;;;8.69;55.12;99782.81;3560460;40;20038;-77
2021/04/08 08:00:29;;;;;;;8.93;6.55;;;;;;;8.66;54.66;99803.81;3561547;40;20059;-76
2021/04/08 08:02:57;;;;;;;13.52;7.68;;;;;;;8.60;55.20;99797.97;3562565;40;20069;-77
2021/04/08 08:05:26;;;;;;;15.60;9.85;;;;;;;8.66;54.83;99803.81;3561918;40;20041;-77
2021/04/08 08:08:08;;;;;;;14.15;8.50;;;;;;;8.83;54.63;99806.66;3567253;40;20397;-79
2021/04/08 08:10:38;;;;;;;11.13;7.97;;;;;;;9.07;53.95;99814.47;3566649;40;20349;-75
2021/04/08 08:13:28;;;;;;;10.10;6.03;;;;;;;8.97;53.78;99816.59;3567649;40;20168;-73
2021/04/08 08:16:00;;;;;;;9.45;5.68;;;;;;;8.79;54.33;99825.97;3560422;40;20087;-71
2021/04/08 08:18:32;;;;;;;6.68;5.38;;;;;;;8.44;54.80;99835.13;3562853;40;20036;-72
2021/04/08 08:21:09;;;;;;;14.23;6.15;;;;;;;8.34;55.05;99838.97;3564330;40;20033;-71
2021/04/08 08:23:47;;;;;;;7.85;5.43;;;;;;;8.38;54.91;99822.28;3567905;40;20136;-72
2021/04/08 08:26:37;;;;;;;8.48;5.53;;;;;;;8.22;55.16;99844.59;3564559;40;20046;-72
2021/04/08 08:29:17;;;;;;;12.35;6.80;;;;;;;8.20;54.89;99847.25;3565906;40;20038;-73
2021/04/08 08:31:47;;;;;;;11.07;5.80;;;;;;;8.43;54.49;99848.22;3565286;40;20036;-72
2021/04/08 08:34:19;;;;;;;10.95;6.22;;;;;;;8.85;53.30;99851.88;3564377;40;20072;-75
2021/04/08 08:37:01;;;;;;;7.10;5.15;;;;;;;8.79;53.51;99861.72;3568682;40;20053;-78
2021/04/08 08:39:32;;;;;;;7.57;5.13;;;;;;;8.45;54.09;99854.25;3562850;40;20072;-76
2021/04/08 08:42:02;;;;;;;8.23;5.30;;;;;;;8.03;54.99;99869.63;3565327;40;20487;-77
2021/04/08 08:44:33;;;;;;;9.15;6.00;;;;;;;7.74;55.64;99883.66;3565250;40;20045;-77
2021/04/08 08:47:03;;;;;;;8.10;4.90;;;;;;;7.65;55.80;99888.25;3565433;40;20038;-76
2021/04/08 08:49:34;;;;;;;8.82;4.40;;;;;;;7.61;55.95;99883.19;3566863;40;20052;-76
2021/04/08 08:52:09;;;;;;;11.70;6.68;;;;;;;7.71;55.39;99889.84;3566736;40;20045;-78
2021/04/08 08:54:37;;;;;;;14.77;6.97;;;;;;;8.06;54.81;99890.41;3565713;40;20078;-77
2021/04/08 08:57:10;;;;;;;13.93;6.53;;;;;;;8.41;53.74;99892.69;3567469;40;20081;-76
2021/04/08 08:59:40;;;;;;;11.35;6.35;;;;;;;8.59;53.45;99906.03;3565130;40;20045;-75
2021/04/08 09:02:26;;;;;;;9.90;6.40;;;;;;;8.81;53.18;99913.03;3565415;40;20037;-75
2021/04/08 09:05:16;;;;;;;14.52;7.50;;;;;;;8.77;53.18;99905.38;3565455;40;20069;-78
2021/04/08 09:07:45;;;;;;;12.07;7.40;;;;;;;8.96;52.99;99918.63;3566683;40;20037;-77
2021/04/08 09:10:14;;;;;;;15.68;7.65;;;;;;;9.37;51.95;99915.28;3566927;40;20094;-77
2021/04/08 09:13:01;;;;;;;15.93;7.82;;;;;;;9.74;51.26;99912.06;3566746;40;20029;-76
2021/04/08 09:15:28;;;;;;;12.25;7.13;;;;;;;10.05;50.47;99922.13;3565083;40;20433;-75
2021/04/08 09:17:59;;;;;;;11.27;6.40;;;;;;;10.17;50.19;99927.78;3564237;40;20131;-76
2021/04/08 09:20:27;;;;;;;13.10;5.65;;;;;;;10.01;50.62;99925.81;3566364;40;20076;-77
2021/04/08 09:22:56;;;;;;;10.18;6.20;;;;;;;9.86;50.84;99925.56;3565366;40;20330;-75
2021/04/08 09:25:30;;;;;;;9.27;5.30;;;;;;;9.91;50.53;99928.84;3564662;40;20037;-76
2021/04/08 09:27:58;;;;;;;11.07;6.03;;;;;;;10.08;50.18;99924.63;3563394;40;20538;-75
2021/04/08 09:30:53;;;;;;;9.82;6.22;;;;;;;10.24;50.00;99937.13;3566880;40;20041;-78
2021/04/08 09:33:20;;;;;;;11.93;6.90;;;;;;;10.61;48.94;99936.38;3566639;40;20327;-76
2021/04/08 09:35:47;;;;;;;8.50;5.10;;;;;;;10.24;49.49;99939.75;3566799;40;20104;-76
2021/04/08 09:38:17;;;;;;;8.60;5.30;;;;;;;9.99;50.03;99942.47;3566081;40;20045;-74
2021/04/08 09:40:57;;;;;;;9.38;5.18;;;;;;;9.90;50.13;99940.25;3566429;40;20144;-76
2021/04/08 09:43:26;;;;;;;8.95;5.88;;;;;;;9.76;50.40;99951.25;3566582;40;20034;-76
2021/04/08 09:46:10;;;;;;;10.05;6.95;;;;;;;9.78;50.42;99952.91;3565381;40;20090;-77
2021/04/08 09:48:51;;;;;;;11.02;6.28;;;;;;;9.64;50.33;99960.47;3564449;40;20034;-77
2021/04/08 09:51:29;;;;;;;8.48;5.35;;;;;;;9.42;50.90;99975.28;3565353;40;20038;-75
2021/04/08 09:54:02;;;;;;;18.95;8.25;;;;;;;9.11;51.54;99972.94;3566739;40;20336;-74
2021/04/08 09:56:44;;;;;;;11.00;5.78;;;;;;;8.96;51.94;99976.13;3566086;40;20026;-77
2021/04/08 09:59:10;;;;;;;13.02;6.30;;;;;;;8.97;51.39;99980.44;3566067;40;20038;-77
2021/04/08 10:01:38;;;;;;;9.50;6.30;;;;;;;8.97;51.79;99985.69;3566689;40;20049;-76
2021/04/08 10:04:12;;;;;;;9.18;5.53;;;;;;;9.06;51.36;99991.41;3567578;40;20030;-76
2021/04/08 10:06:39;;;;;;;8.32;4.97;;;;;;;9.50;50.37;99985.44;3567152;40;20047;-77
2021/04/08 10:09:09;;;;;;;8.70;5.65;;;;;;;9.86;49.50;99989.25;3567038;40;20049;-76
2021/04/08 10:11:35;;;;;;;12.98;4.93;;;;;;;9.74;49.88;99989.72;3567236;40;20063;-73
2021/04/08 10:14:18;;;;;;;11.48;5.32;;;;;;;9.57;50.09;100000.00;3567209;40;20369;-76
2021/04/08 10:16:58;;;;;;;;;;;;;;;9.59;50.44;100006.91;3568166;40;20395;-76
2021/04/08 10:19:29;;;;;;;9.10;5.55;;;;;;;9.68;50.16;100000.44;3566594;40;19937;-77
2021/04/08 10:21:55;;;;;;;15.48;5.68;;;;;;;9.88;49.75;100005.75;3566276;40;20287;-75
2021/04/08 10:24:21;;;;;;;12.50;7.03;;;;;;;10.04;49.77;100004.25;3566193;40;20397;-77
2021/04/08 10:26:48;;;;;;;15.35;6.57;;;;;;;10.00;49.91;100001.81;3568244;40;20045;-76
2021/04/08 10:29:14;;;;;;;11.18;6.70;;;;;;;9.82;50.15;100013.88;3566661;40;20077;-76
2021/04/08 10:31:44;;;;;;;16.02;6.60;;;;;;;9.75;50.32;100008.00;3566807;40;20718;-76
2021/04/08 10:34:13;;;;;;;17.98;9.35;;;;;;;9.64;50.59;100017.19;3568413;40;20049;-76
2021/04/08 10:36:41;;;;;;;10.93;5.80;;;;;;;9.70;50.57;100017.78;3567693;40;20046;-76
2021/04/08 10:39:11;;;;;;;16.85;9.18;;;;;;;10.28;49.45;100022.53;3567999;40;20122;-75
2021/04/08 10:41:39;;;;;;;25.85;12.70;;;;;;;11.16;47.79;100007.41;3566580;40;20057;-75
2021/04/08 10:44:22;;;;;;;14.27;7.68;;;;;;;11.82;46.74;100014.00;3567781;40;20036;-75
2021/04/08 10:46:49;;;;;;;18.35;10.60;;;;;;;12.30;45.80;100009.09;3567796;40;20052;-76
2021/04/08 10:49:24;;;;;;;14.40;8.02;;;;;;;12.48;45.38;100018.69;3566215;40;20038;-76
2021/04/08 10:51:51;;;;;;;22.70;10.60;;;;;;;13.15;44.37;100022.31;3566833;40;20038;-75
2021/04/08 10:54:19;;;;;;;21.35;11.20;;;;;;;13.55;43.70;100039.50;3566579;40;20038;-75
2021/04/08 10:56:49;;;;;;;12.40;7.25;;;;;;;12.93;44.14;100023.41;3567351;40;20040;-75
2021/04/08 10:59:17;;;;;;;15.93;8.02;;;;;;;12.54;44.80;100028.91;3566134;40;20054;-76
2021/04/08 11:01:44;;;;;;;23.27;8.65;;;;;;;12.36;44.98;100037.72;3567321;40;20134;-74
2021/04/08 11:04:13;;;;;;;19.88;10.05;;;;;;;12.38;44.84;100034.06;3567175;40;20478;-76
2021/04/08 11:06:42;;;;;;;11.85;7.35;;;;;;;12.19;45.13;100038.53;3567543;40;20049;-75
2021/04/08 11:09:09;;;;;;;13.45;7.82;;;;;;;11.92;45.49;100045.94;3565419;40;20373;-75
2021/04/08 11:11:36;;;;;;;10.93;5.30;;;;;;;11.08;47.19;100052.34;3567493;40;20041;-76
2021/04/08 11:14:02;;;;;;;11.77;6.00;;;;;;;10.75;48.20;100053.78;3567524;40;20052;-75
2021/04/08 11:16:32;;;;;;;11.27;6.20;;;;;;;11.23;47.47;100056.06;3566236;40;20045;-75
2021/04/08 11:19:02;;;;;;;11.35;6.10;;;;;;;11.84;46.18;100054.16;3566229;40;20035;-75
2021/04/08 11:21:30;;;;;;;13.75;5.85;;;;;;;12.39;45.01;100051.53;3564593;40;20477;-76
2021/04/08 11:23:58;;;;;;;10.77;6.63;;;;;;;12.28;44.88;100059.09;3567247;40;20042;-76
2021/04/08 11:26:25;;;;;;;14.38;6.45;;;;;;;11.87;45.73;100056.69;3566920;40;20398;-75
2021/04/08 11:28:57;;;;;;;15.48;7.60;;;;;;;11.56;46.21;100064.22;3566866;40;20097;-75
2021/04/08 11:31:26;;;;;;;12.10;7.50;;;;;;;11.80;46.16;100063.13;3565808;40;20056;-74
2021/04/08 11:34:12;;;;;;;12.90;7.32;;;;;;;12.00;45.42;100064.81;3566569;40;20038;-74
2021/04/08 11:36:38;;;;;;;12.18;6.30;;;;;;;12.31;44.80;100061.59;3566790;40;20081;-76
2021/04/08 11:39:10;;;;;;;7.63;4.63;;;;;;;12.52;43.96;100055.28;3566522;40;20080;-77